Finike, Turkey
Current Conditions -  °F | °C
As of 3:20 PM on Tuesday 21 Oct 2014 (Local Time) from LTAI Reporting Station
Few Clouds Few Clouds  
Wind Chill: 75°   Ceiling: Unl
Heat Index: 75°   Visibility: 6mi
Dew Point: 57°   Wind: 8mph
Humidity: 53%   Direction: 160°SSE
Pressure: 29.94"   Gusts: NA
Location:  36.3°N, 30.14°E
Report Text: LTAI 211220Z 16007KT 130V190 9999 FEW030 24/14 Q1014 NOSIG
Loading
Personal Weather Stations






























Interactive Weather Map
Tropical Storm Tracking
New forecast layout! Learn more

10-Day Weather Forecast

Advertisements
Track Severe Weather on mobile